Terminal Aerodrome Forecast
Issued by NWS Nashville, TN

Home | Current Version | Previous Version | Text Only | Print | Product List | Glossary On
Versions: 1 2 3 4 5 6 7 8 9 10 11 12 13 14 15
000
FTUS44 KOHX 230500
TAFCSV
TAF
KCSV 230522Z 2306/2406 17009G16KT P6SM SCT020 OVC050
     FM230900 15008G16KT P6SM VCSH BKN025 OVC040
     FM231400 13014G22KT 4SM -SHRA OVC009
     FM231800 15012G20KT 2SM -RA BR VCTS OVC006CB
     FM240000 18013G23KT 4SM -DZ BR BKN005 OVC020=

USA.gov is the U.S. government's official web portal to all federal, state and local government web resources and services.